createdAt,value
2022-12-14T00:00:54.622Z,98842.63
2022-12-14T00:03:24.759Z,98844.38
2022-12-14T00:05:54.346Z,98846.94
2022-12-14T00:08:24.135Z,98843.53
2022-12-14T00:10:56.312Z,98844.38
2022-12-14T00:13:25.879Z,98853.84
2022-12-14T00:15:55.455Z,98846.13
2022-12-14T00:18:25.579Z,98846.97
2022-12-14T00:20:55.594Z,98860.69
2022-12-14T00:23:24.871Z,98853.81
2022-12-14T00:25:54.738Z,98855.56
2022-12-14T00:28:24.367Z,98858.16
2022-12-14T00:31:00.310Z,98851.28
2022-12-14T00:33:29.938Z,98847.84
2022-12-14T00:35:59.231Z,98851.28
2022-12-14T00:38:29.406Z,98855.59
2022-12-14T00:40:59.568Z,98843.59
2022-12-14T00:43:29.357Z,98850.44
2022-12-14T00:45:59.409Z,98843.56
2022-12-14T00:48:30.015Z,98840.97
2022-12-14T00:51:00.299Z,98839.22
2022-12-14T00:53:30.195Z,98843.50
2022-12-14T00:56:07.504Z,98849.50
2022-12-14T00:58:37.779Z,98853.81
2022-12-14T01:01:10.339Z,98854.69
2022-12-14T01:03:40.427Z,98842.69
2022-12-14T01:06:20.003Z,98851.25
2022-12-14T01:08:50.400Z,98847.84
2022-12-14T01:11:19.994Z,98852.13
2022-12-14T01:13:49.944Z,98851.28
2022-12-14T01:16:20.010Z,98849.59
2022-12-14T01:18:49.762Z,98849.59
2022-12-14T01:21:22.067Z,98849.59
2022-12-14T01:23:57.040Z,98858.13
2022-12-14T01:26:28.860Z,98853.00
2022-12-14T01:29:00.301Z,98854.72
2022-12-14T01:31:33.221Z,98858.16
2022-12-14T01:34:03.153Z,98856.44
2022-12-14T01:36:35.625Z,98865.88
2022-12-14T01:39:10.602Z,98866.72
2022-12-14T01:41:53.422Z,98868.44
2022-12-14T01:44:22.474Z,98867.56
2022-12-14T01:47:01.259Z,98862.44
2022-12-14T01:50:04.585Z,98871.00
2022-12-14T01:52:42.884Z,98878.72
2022-12-14T01:55:17.921Z,98881.25
2022-12-14T01:57:52.935Z,98876.16
2022-12-14T02:00:24.213Z,98875.25
2022-12-14T02:03:01.039Z,98873.53
2022-12-14T02:05:33.793Z,98872.69
2022-12-14T02:08:04.314Z,98873.59
2022-12-14T02:10:34.466Z,98886.41
2022-12-14T02:13:32.898Z,98888.16
2022-12-14T02:16:02.544Z,98895.88
2022-12-14T02:18:34.422Z,98895.00
2022-12-14T02:21:15.901Z,98889.00
2022-12-14T02:24:21.146Z,98891.56
2022-12-14T02:26:59.674Z,98895.00
2022-12-14T02:29:42.951Z,98897.53
2022-12-14T02:32:39.133Z,98907.81
2022-12-14T02:35:27.284Z,98912.13
2022-12-14T02:38:32.287Z,98912.94
2022-12-14T02:41:31.305Z,98922.34
2022-12-14T02:44:18.137Z,98928.38
2022-12-14T02:47:00.217Z,98920.66
2022-12-14T02:49:49.672Z,98928.34
2022-12-14T02:52:57.781Z,98931.72
2022-12-14T02:55:42.352Z,98938.56
2022-12-14T02:58:37.814Z,98942.84
2022-12-14T03:01:13.422Z,98949.72
2022-12-14T03:03:44.550Z,98951.41
2022-12-14T03:06:26.910Z,98955.69
2022-12-14T03:09:05.433Z,98953.94
2022-12-14T03:11:49.959Z,98953.00
2022-12-14T03:14:28.954Z,98959.00
2022-12-14T03:17:06.192Z,98963.25
2022-12-14T03:19:46.209Z,98969.09
2022-12-14T03:22:24.641Z,98969.91
2022-12-14T03:25:00.479Z,98963.81
2022-12-14T03:27:37.921Z,98971.47
2022-12-14T03:30:43.826Z,98980.91
2022-12-14T03:33:16.567Z,98988.50
2022-12-14T03:35:59.688Z,98991.88
2022-12-14T03:38:52.003Z,99002.06
2022-12-14T03:41:56.870Z,98999.41
2022-12-14T03:44:49.699Z,98995.06
2022-12-14T03:47:28.382Z,99009.72
2022-12-14T03:50:19.775Z,99007.84
2022-12-14T03:53:01.946Z,99019.88
2022-12-14T03:56:06.600Z,99022.25
2022-12-14T03:58:57.199Z,99021.38
2022-12-14T04:01:52.083Z,99020.41
2022-12-14T04:04:47.500Z,99023.78
2022-12-14T04:07:40.133Z,99027.38
2022-12-14T04:10:36.058Z,99034.94
2022-12-14T04:13:31.318Z,99035.06
2022-12-14T04:16:26.001Z,99038.31
2022-12-14T04:19:00.955Z,99056.19
2022-12-14T04:21:46.578Z,99056.09
2022-12-14T04:24:52.072Z,99057.94
2022-12-14T04:27:26.094Z,99068.38
2022-12-14T04:30:01.651Z,99066.47
2022-12-14T04:32:36.717Z,99057.78
2022-12-14T04:35:37.447Z,99054.16
2022-12-14T04:38:16.291Z,99060.19
2022-12-14T04:40:57.662Z,99063.59
2022-12-14T04:43:31.576Z,99055.84
2022-12-14T04:46:11.094Z,99066.06
2022-12-14T04:49:01.645Z,99068.44
2022-12-14T04:51:51.292Z,99068.41
2022-12-14T04:54:45.863Z,99065.53
2022-12-14T04:57:21.684Z,99078.44
2022-12-14T04:59:52.219Z,99070.75
2022-12-14T05:02:29.538Z,99073.97
2022-12-14T05:05:32.389Z,99067.03
2022-12-14T05:08:31.493Z,99065.31
2022-12-14T05:11:51.933Z,99064.13
2022-12-14T05:14:22.959Z,99057.44
2022-12-14T05:16:52.756Z,99056.59
2022-12-14T05:19:27.584Z,99063.22
2022-12-14T05:21:57.247Z,99063.03
2022-12-14T05:24:26.849Z,99055.00
2022-12-14T05:26:56.450Z,99056.63
2022-12-14T05:29:25.881Z,99057.44
2022-12-14T05:31:55.920Z,99046.34
2022-12-14T05:34:26.024Z,99038.38
2022-12-14T05:36:56.052Z,99043.34
2022-12-14T05:39:25.979Z,99044.44
2022-12-14T05:41:55.745Z,99033.16
2022-12-14T05:44:25.607Z,99034.47
2022-12-14T05:46:55.084Z,99030.19
2022-12-14T05:49:24.844Z,99032.50
2022-12-14T05:51:54.772Z,99028.03
2022-12-14T05:54:24.393Z,99028.09
2022-12-14T05:56:54.090Z,99032.09
2022-12-14T05:59:24.121Z,99025.59
2022-12-14T06:01:53.550Z,99028.22
2022-12-14T06:04:23.288Z,99023.75
2022-12-14T06:06:53.304Z,99025.53
2022-12-14T06:09:24.005Z,99015.75
2022-12-14T06:11:55.140Z,99024.38
2022-12-14T06:14:27.964Z,99015.50
2022-12-14T06:16:57.854Z,99013.63
2022-12-14T06:19:27.219Z,99005.69
2022-12-14T06:21:56.887Z,98997.63
2022-12-14T06:24:26.814Z,98994.16
2022-12-14T06:26:56.180Z,98995.66
2022-12-14T06:29:25.866Z,99000.69
2022-12-14T06:31:55.792Z,98978.25
2022-12-14T06:34:28.692Z,98978.31
2022-12-14T06:36:59.609Z,98975.34
2022-12-14T06:39:34.052Z,98968.47
2022-12-14T06:42:04.952Z,98967.38
2022-12-14T06:44:36.114Z,98959.25
2022-12-14T06:47:06.674Z,98961.81
2022-12-14T06:49:36.896Z,98955.78
2022-12-14T06:52:07.571Z,98952.22
2022-12-14T06:54:37.753Z,98947.63
2022-12-14T06:57:07.797Z,98949.31
2022-12-14T06:59:37.278Z,98946.63
2022-12-14T07:02:07.060Z,98941.53
2022-12-14T07:04:36.761Z,98943.00
2022-12-14T07:07:07.503Z,98934.69
2022-12-14T07:09:37.098Z,98931.34
2022-12-14T07:12:08.038Z,98940.03
2022-12-14T07:14:38.647Z,98931.72
2022-12-14T07:17:08.755Z,98928.22
2022-12-14T07:19:38.287Z,98920.28
2022-12-14T07:22:08.248Z,98925.38
2022-12-14T07:24:38.825Z,98920.16
2022-12-14T07:27:09.739Z,98917.09
2022-12-14T07:29:40.125Z,98908.88
2022-12-14T07:32:10.103Z,98908.31
2022-12-14T07:34:40.231Z,98908.00
2022-12-14T07:37:10.033Z,98907.91
2022-12-14T07:39:39.692Z,98891.50
2022-12-14T07:42:09.399Z,98891.53
2022-12-14T07:44:39.906Z,98891.63
2022-12-14T07:47:12.543Z,98891.81
2022-12-14T07:49:46.630Z,98888.78
2022-12-14T07:52:20.373Z,98886.91
2022-12-14T07:54:51.575Z,98880.00
2022-12-14T07:57:21.127Z,98876.41
2022-12-14T07:59:55.792Z,98881.84
2022-12-14T08:02:27.578Z,98878.19
2022-12-14T08:04:57.527Z,98871.97
2022-12-14T08:07:28.598Z,98863.38
2022-12-14T08:10:08.526Z,98860.88
2022-12-14T08:12:38.990Z,98863.75
2022-12-14T08:15:10.437Z,98859.41
2022-12-14T08:17:40.217Z,98856.25
2022-12-14T08:20:11.950Z,98854.09
2022-12-14T08:22:41.654Z,98852.31
2022-12-14T08:25:11.779Z,98846.03
2022-12-14T08:27:41.771Z,98839.88
2022-12-14T08:30:12.051Z,98833.47
2022-12-14T08:32:42.026Z,98829.19
2022-12-14T08:35:12.317Z,98824.09
2022-12-14T08:37:47.324Z,98835.09
2022-12-14T08:47:17.773Z,98826.50
2022-12-14T08:49:47.716Z,98823.09
2022-12-14T08:52:17.726Z,98826.19
2022-12-14T08:54:47.331Z,98828.09
2022-12-14T08:57:16.698Z,98822.69
2022-12-14T09:00:02.759Z,98815.88
2022-12-14T09:02:32.826Z,98820.84
2022-12-14T09:05:03.020Z,98813.00
2022-12-14T09:07:33.866Z,98816.25
2022-12-14T09:10:03.808Z,98824.06
2022-12-14T09:12:34.902Z,98821.38
2022-12-14T09:15:05.499Z,98815.91
2022-12-14T09:17:36.933Z,98815.97
2022-12-14T09:20:08.663Z,98803.84
2022-12-14T09:22:39.623Z,98810.03
2022-12-14T09:25:11.112Z,98808.25
2022-12-14T09:27:40.860Z,98815.91
2022-12-14T09:30:10.928Z,98816.91
2022-12-14T09:32:41.322Z,98808.94
2022-12-14T09:35:11.535Z,98818.13
2022-12-14T09:37:42.149Z,98811.13
2022-12-14T09:40:14.795Z,98808.97
2022-12-14T09:42:44.350Z,98799.69
2022-12-14T09:45:30.180Z,98802.00
2022-12-14T09:48:22.313Z,98799.38
2022-12-14T09:50:55.169Z,98803.09
2022-12-14T09:53:25.994Z,98800.66
2022-12-14T09:55:58.643Z,98800.53
2022-12-14T09:58:31.576Z,98789.78
2022-12-14T10:01:36.207Z,98789.06
2022-12-14T10:04:23.625Z,98787.47
2022-12-14T10:07:12.139Z,98790.84
2022-12-14T10:10:00.041Z,98782.69
2022-12-14T10:12:35.065Z,98791.19
2022-12-14T10:15:20.374Z,98789.81
2022-12-14T10:18:34.036Z,98788.09
2022-12-14T10:21:11.447Z,98788.31
2022-12-14T10:23:48.713Z,98781.75
2022-12-14T10:26:22.277Z,98787.53
2022-12-14T10:29:06.286Z,98788.50
2022-12-14T10:31:49.739Z,98785.00
2022-12-14T10:34:30.314Z,98782.56
2022-12-14T10:37:27.091Z,98790.47
2022-12-14T10:40:19.697Z,98787.00
2022-12-14T10:43:04.539Z,98782.13
2022-12-14T10:45:41.860Z,98789.84
2022-12-14T10:48:41.094Z,98788.19
2022-12-14T10:51:45.946Z,98781.53
2022-12-14T10:54:27.439Z,98776.75
2022-12-14T10:56:57.347Z,98776.84
2022-12-14T10:59:39.699Z,98781.28
2022-12-14T11:02:23.133Z,98776.00
2022-12-14T11:04:56.955Z,98788.59
2022-12-14T11:07:38.167Z,98783.38
2022-12-14T11:10:23.475Z,98787.50
2022-12-14T11:13:16.720Z,98787.06
2022-12-14T11:15:49.133Z,98797.78
2022-12-14T11:18:18.880Z,98792.97
2022-12-14T11:20:59.143Z,98794.38
2022-12-14T11:23:43.875Z,98799.63
2022-12-14T11:26:44.501Z,98798.81
2022-12-14T11:29:32.293Z,98796.34
2022-12-14T11:32:02.993Z,98794.16
2022-12-14T11:35:07.804Z,98785.41
2022-12-14T11:37:37.455Z,98793.88
2022-12-14T11:40:23.623Z,98802.56
2022-12-14T11:42:58.699Z,98804.56
2022-12-14T11:45:28.633Z,98805.81
2022-12-14T11:48:16.596Z,98813.44
2022-12-14T11:50:49.236Z,98811.34
2022-12-14T11:53:22.966Z,98822.59
2022-12-14T11:56:04.416Z,98817.53
2022-12-14T11:58:39.870Z,98822.88
2022-12-14T12:01:23.063Z,98816.88
2022-12-14T12:03:58.901Z,98815.47
2022-12-14T12:06:32.451Z,98827.63
2022-12-14T12:09:05.805Z,98829.53
2022-12-14T12:11:39.704Z,98820.16
2022-12-14T12:14:34.850Z,98827.06
2022-12-14T12:17:18.523Z,98823.19
2022-12-14T12:19:52.594Z,98818.13
2022-12-14T12:22:23.245Z,98823.59
2022-12-14T12:25:24.291Z,98819.50
2022-12-14T12:27:57.664Z,98814.38
2022-12-14T12:30:31.050Z,98811.81
2022-12-14T12:33:09.553Z,98815.38
2022-12-14T12:35:49.762Z,98823.16
2022-12-14T12:38:41.845Z,98818.13
2022-12-14T12:41:43.277Z,98826.97
2022-12-14T12:44:49.733Z,98823.78
2022-12-14T12:47:47.802Z,98827.31
2022-12-14T12:50:22.708Z,98825.84
2022-12-14T12:53:03.644Z,98822.50
2022-12-14T12:55:38.496Z,98827.06
2022-12-14T12:58:10.778Z,98828.25
2022-12-14T13:00:42.972Z,98835.22
2022-12-14T13:03:21.850Z,98831.00
2022-12-14T13:05:55.327Z,98831.91
2022-12-14T13:08:30.416Z,98838.97
2022-12-14T13:11:37.824Z,98833.88
2022-12-14T13:14:20.314Z,98848.72
2022-12-14T13:16:52.597Z,98841.22
2022-12-14T13:20:00.931Z,98849.66
2022-12-14T13:22:33.425Z,98860.47
2022-12-14T13:25:29.361Z,98855.22
2022-12-14T13:28:26.923Z,98864.97
2022-12-14T13:31:33.336Z,98860.72
2022-12-14T13:34:20.416Z,98862.56
2022-12-14T13:37:17.317Z,98863.31
2022-12-14T13:40:11.790Z,98867.63
2022-12-14T13:43:02.826Z,98874.53
2022-12-14T13:45:39.387Z,98874.66
2022-12-14T13:48:33.612Z,98881.38
2022-12-14T13:51:07.802Z,98885.84
2022-12-14T13:53:50.204Z,98882.44
2022-12-14T13:56:21.330Z,98885.00
2022-12-14T13:58:53.706Z,98886.28
2022-12-14T14:01:41.763Z,98887.28
2022-12-14T14:04:17.564Z,98888.13
2022-12-14T14:06:56.012Z,98889.06
2022-12-14T14:09:29.655Z,98890.88
2022-12-14T14:12:05.489Z,98898.72
2022-12-14T14:14:53.128Z,98898.78
2022-12-14T14:17:38.315Z,98905.88
2022-12-14T14:20:29.464Z,98907.47
2022-12-14T14:23:25.015Z,98920.41
2022-12-14T14:26:11.012Z,98910.09
2022-12-14T14:28:41.626Z,98911.22
2022-12-14T14:31:11.377Z,98918.22
2022-12-14T14:33:57.149Z,98909.44
2022-12-14T14:36:38.116Z,98915.53
2022-12-14T14:42:25.678Z,98918.34
2022-12-14T14:44:59.861Z,98915.84
2022-12-14T14:47:32.250Z,98922.03
2022-12-14T14:50:06.549Z,98920.25
2022-12-14T14:52:42.822Z,98923.66
2022-12-14T14:55:54.467Z,98930.50
2022-12-14T14:58:33.160Z,98927.16
2022-12-14T15:01:28.194Z,98930.56
2022-12-14T15:04:32.974Z,98934.91
2022-12-14T15:07:15.193Z,98933.22
2022-12-14T15:09:52.569Z,98936.72
2022-12-14T15:12:44.753Z,98936.59
2022-12-14T15:15:20.380Z,98935.81
2022-12-14T15:17:50.146Z,98937.75
2022-12-14T15:20:28.849Z,98938.47
2022-12-14T15:22:59.555Z,98940.34
2022-12-14T15:25:32.321Z,98936.91
2022-12-14T15:28:08.936Z,98936.88
2022-12-14T15:33:45.434Z,98936.06
2022-12-14T15:36:21.463Z,98950.75
2022-12-14T15:38:56.842Z,98937.84
2022-12-14T15:41:34.164Z,98941.34
2022-12-14T15:44:04.038Z,98940.63
2022-12-14T15:46:36.556Z,98935.44
2022-12-14T15:49:12.112Z,98942.41
2022-12-14T15:51:45.374Z,98935.59
2022-12-14T15:54:24.199Z,98929.53
2022-12-14T15:56:58.408Z,98944.09
2022-12-14T15:59:37.942Z,98932.03
2022-12-14T16:02:31.645Z,98928.56
2022-12-14T16:05:07.382Z,98926.13
2022-12-14T16:07:44.760Z,98927.91
2022-12-14T16:10:25.425Z,98925.34
2022-12-14T16:13:32.134Z,98934.78
2022-12-14T16:16:18.874Z,98933.94
2022-12-14T16:18:54.274Z,98937.50
2022-12-14T16:21:37.079Z,98943.50
2022-12-14T16:24:26.569Z,98940.03
2022-12-14T16:27:02.729Z,98940.13
2022-12-14T16:29:36.064Z,98938.47
2022-12-14T16:32:18.589Z,98941.00
2022-12-14T16:35:02.150Z,98939.31
2022-12-14T16:37:34.111Z,98935.09
2022-12-14T16:40:06.108Z,98936.91
2022-12-14T16:42:40.445Z,98930.94
2022-12-14T16:45:47.168Z,98937.59
2022-12-14T16:48:26.191Z,98939.44
2022-12-14T16:51:38.451Z,98937.56
2022-12-14T16:54:27.034Z,98940.25
2022-12-14T16:57:19.144Z,98939.41
2022-12-14T16:59:58.450Z,98940.38
2022-12-14T17:02:32.179Z,98941.25
2022-12-14T17:05:07.944Z,98938.69
2022-12-14T17:07:39.620Z,98946.47
2022-12-14T17:10:21.342Z,98946.44
2022-12-14T17:12:54.764Z,98937.97
2022-12-14T17:15:30.739Z,98939.66
2022-12-14T17:18:03.954Z,98938.81
2022-12-14T17:20:42.960Z,98939.75
2022-12-14T17:23:19.504Z,98939.72
2022-12-14T17:25:49.974Z,98942.34
2022-12-14T17:28:28.439Z,98939.66
2022-12-14T17:31:03.504Z,98933.72
2022-12-14T17:33:34.354Z,98932.03
2022-12-14T17:36:07.829Z,98936.38
2022-12-14T17:38:38.259Z,98927.81
2022-12-14T17:41:09.252Z,98929.53
2022-12-14T17:43:43.997Z,98930.38
2022-12-14T17:46:21.972Z,98931.22
2022-12-14T17:48:52.795Z,98924.38
2022-12-14T17:51:31.765Z,98934.56
2022-12-14T17:54:02.751Z,98932.91
2022-12-14T17:56:32.956Z,98928.59
2022-12-14T17:59:03.382Z,98921.78
2022-12-14T18:01:33.943Z,98918.44
2022-12-14T18:04:04.512Z,98921.84
2022-12-14T18:06:34.217Z,98918.47
2022-12-14T18:09:06.944Z,98918.53
2022-12-14T18:11:39.184Z,98913.56
2022-12-14T18:14:16.860Z,98909.19
2022-12-14T18:16:46.449Z,98896.28
2022-12-14T18:19:17.734Z,98901.44
2022-12-14T18:21:47.194Z,98898.88
2022-12-14T18:24:25.607Z,98892.00
2022-12-14T18:26:55.469Z,98886.84
2022-12-14T18:29:25.008Z,98885.13
2022-12-14T18:31:58.026Z,98877.41
2022-12-14T18:34:27.137Z,98874.69
2022-12-14T18:36:56.893Z,98868.78
2022-12-14T18:39:26.438Z,98871.34
2022-12-14T18:41:55.893Z,98867.91
2022-12-14T18:44:26.146Z,98874.84
2022-12-14T18:46:57.813Z,98871.50
2022-12-14T18:49:29.564Z,98869.88
2022-12-14T18:51:59.263Z,98861.25
2022-12-14T18:54:29.046Z,98857.84
2022-12-14T18:56:58.732Z,98865.56
2022-12-14T18:59:28.388Z,98866.44
2022-12-14T19:01:59.431Z,98875.03
2022-12-14T19:04:35.132Z,98872.47
2022-12-14T19:07:05.169Z,98866.50
2022-12-14T19:09:35.522Z,98874.22
2022-12-14T19:12:06.657Z,98871.66
2022-12-14T19:14:40.768Z,98881.09
2022-12-14T19:17:13.594Z,98885.38
2022-12-14T19:19:44.549Z,98884.44
2022-12-14T19:22:18.290Z,98881.91
2022-12-14T19:24:52.505Z,98885.34
2022-12-14T19:28:00.927Z,98878.47
2022-12-14T19:30:25.871Z,98873.28
2022-12-14T19:32:57.628Z,98874.19
2022-12-14T19:35:27.414Z,98881.06
2022-12-14T19:37:57.730Z,98880.19
2022-12-14T19:40:31.199Z,98887.06
2022-12-14T19:43:01.574Z,98885.34
2022-12-14T19:45:34.102Z,98890.53
2022-12-14T19:48:09.991Z,98886.25
2022-12-14T19:50:42.481Z,98886.25
2022-12-14T19:53:18.516Z,98887.13
2022-12-14T19:55:53.659Z,98881.97
2022-12-14T19:58:23.944Z,98882.88
2022-12-14T20:00:54.165Z,98886.28
2022-12-14T20:03:25.480Z,98879.44
2022-12-14T20:05:59.041Z,98873.47
2022-12-14T20:08:33.709Z,98877.72
2022-12-14T20:11:13.363Z,98875.97
2022-12-14T20:13:43.814Z,98871.75
2022-12-14T20:16:19.404Z,98871.69
2022-12-14T20:18:51.359Z,98872.59
2022-12-14T20:21:25.538Z,98876.88
2022-12-14T20:23:59.276Z,98875.19
2022-12-14T20:26:39.603Z,98870.88
2022-12-14T20:29:10.430Z,98875.22
2022-12-14T20:31:41.935Z,98876.09
2022-12-14T20:34:11.979Z,98870.09
2022-12-14T20:36:42.818Z,98866.66
2022-12-14T20:39:15.136Z,98868.38
2022-12-14T20:41:45.267Z,98870.00
2022-12-14T20:44:17.001Z,98868.38
2022-12-14T20:46:51.417Z,98863.22
2022-12-14T20:49:30.538Z,98860.63
2022-12-14T20:52:00.971Z,98863.22
2022-12-14T20:54:39.533Z,98850.34
2022-12-14T20:57:10.379Z,98848.66
2022-12-14T20:59:39.999Z,98847.81
2022-12-14T21:02:18.978Z,98850.34
2022-12-14T21:04:48.693Z,98845.25
2022-12-14T21:07:22.817Z,98842.69
2022-12-14T21:09:55.366Z,98839.25
2022-12-14T21:12:25.194Z,98833.25
2022-12-14T21:14:57.271Z,98823.78
2022-12-14T21:17:29.512Z,98823.81
2022-12-14T21:19:59.666Z,98813.53
2022-12-14T21:22:31.503Z,98807.56
2022-12-14T21:25:03.597Z,98799.84
2022-12-14T21:27:33.152Z,98814.34
2022-12-14T21:30:03.250Z,98805.00
2022-12-14T21:32:33.283Z,98803.28
2022-12-14T21:35:03.005Z,98801.53
2022-12-14T21:37:32.763Z,98798.97
2022-12-14T21:40:04.610Z,98803.25
2022-12-14T21:42:34.209Z,98799.81
2022-12-14T21:45:05.873Z,98792.97
2022-12-14T21:47:35.782Z,98792.94
2022-12-14T21:50:05.606Z,98782.66
2022-12-14T21:52:35.409Z,98788.69
2022-12-14T21:55:04.848Z,98784.38
2022-12-14T21:57:52.560Z,98784.38
2022-12-14T22:00:23.105Z,98776.69
2022-12-14T22:02:52.952Z,98780.97
2022-12-14T22:05:22.390Z,98773.25
2022-12-14T22:07:53.179Z,98774.13
2022-12-14T22:10:24.993Z,98775.84
2022-12-14T22:12:55.030Z,98778.44
2022-12-14T22:15:24.735Z,98775.84
2022-12-14T22:17:54.021Z,98780.16
2022-12-14T22:20:23.481Z,98776.69
2022-12-14T22:22:52.865Z,98781.84
2022-12-14T22:25:22.767Z,98778.44
2022-12-14T22:27:52.272Z,98777.56
2022-12-14T22:30:23.962Z,98772.44
2022-12-14T22:32:55.694Z,98776.75
2022-12-14T22:35:24.967Z,98775.03
2022-12-14T22:37:54.598Z,98776.75
2022-12-14T22:40:24.138Z,98776.75
2022-12-14T22:42:53.348Z,98771.59
2022-12-14T22:45:22.811Z,98766.47
2022-12-14T22:47:52.453Z,98766.47
2022-12-14T22:50:22.361Z,98768.19
2022-12-14T22:52:51.881Z,98763.91
2022-12-14T22:55:21.549Z,98761.31
2022-12-14T22:57:51.356Z,98760.44
2022-12-14T23:00:20.851Z,98761.31
2022-12-14T23:02:50.870Z,98753.63
2022-12-14T23:05:21.007Z,98753.63
2022-12-14T23:07:50.480Z,98751.91
2022-12-14T23:10:38.093Z,98755.31
2022-12-14T23:13:25.512Z,98757.91
2022-12-14T23:16:13.485Z,98755.34
2022-12-14T23:19:01.528Z,98757.06
2022-12-14T23:21:49.388Z,98757.91
2022-12-14T23:24:37.189Z,98757.91
2022-12-14T23:27:24.964Z,98751.91
2022-12-14T23:30:12.522Z,98753.66
2022-12-14T23:33:00.155Z,98749.34
2022-12-14T23:35:47.588Z,98751.06
2022-12-14T23:38:35.741Z,98750.22
2022-12-14T23:41:23.685Z,98748.47
2022-12-14T23:44:11.651Z,98745.91
2022-12-14T23:46:59.077Z,98743.34
2022-12-14T23:49:47.388Z,98738.22
2022-12-14T23:52:35.030Z,98736.50
2022-12-14T23:55:22.466Z,98734.75
2022-12-14T23:58:10.331Z,98745.06
